sensor_id;sensor_type;location;lat;lon;timestamp;P1;durP1;ratioP1;P2;durP2;ratioP2
29202;SDS011;16245;51.170;4.884;2022-11-14T00:00:26;20.00;;;14.50;;
29202;SDS011;16245;51.170;4.884;2022-11-14T00:02:53;16.83;;;13.90;;
29202;SDS011;16245;51.170;4.884;2022-11-14T00:05:19;17.70;;;14.23;;
29202;SDS011;16245;51.170;4.884;2022-11-14T00:07:45;17.35;;;12.93;;
29202;SDS011;16245;51.170;4.884;2022-11-14T00:10:14;18.30;;;13.63;;
29202;SDS011;16245;51.170;4.884;2022-11-14T00:12:40;18.40;;;13.13;;
29202;SDS011;16245;51.170;4.884;2022-11-14T00:15:06;19.55;;;14.20;;
29202;SDS011;16245;51.170;4.884;2022-11-14T00:17:32;20.00;;;13.63;;
29202;SDS011;16245;51.170;4.884;2022-11-14T00:19:58;18.85;;;13.30;;
29202;SDS011;16245;51.170;4.884;2022-11-14T00:22:24;20.13;;;15.48;;
29202;SDS011;16245;51.170;4.884;2022-11-14T00:24:49;22.25;;;16.27;;
29202;SDS011;16245;51.170;4.884;2022-11-14T00:27:15;21.95;;;14.65;;
29202;SDS011;16245;51.170;4.884;2022-11-14T00:29:40;22.50;;;16.65;;
29202;SDS011;16245;51.170;4.884;2022-11-14T00:32:06;22.98;;;15.65;;
29202;SDS011;16245;51.170;4.884;2022-11-14T00:34:32;23.35;;;15.77;;
29202;SDS011;16245;51.170;4.884;2022-11-14T00:36:58;25.27;;;17.75;;
29202;SDS011;16245;51.170;4.884;2022-11-14T00:39:24;26.15;;;17.40;;
29202;SDS011;16245;51.170;4.884;2022-11-14T00:41:50;27.00;;;16.98;;
29202;SDS011;16245;51.170;4.884;2022-11-14T00:44:15;22.20;;;15.07;;
29202;SDS011;16245;51.170;4.884;2022-11-14T00:46:41;29.77;;;17.35;;
29202;SDS011;16245;51.170;4.884;2022-11-14T00:49:07;22.52;;;16.08;;
29202;SDS011;16245;51.170;4.884;2022-11-14T00:51:32;24.13;;;16.25;;
29202;SDS011;16245;51.170;4.884;2022-11-14T00:53:58;23.65;;;16.52;;
29202;SDS011;16245;51.170;4.884;2022-11-14T00:56:24;29.75;;;17.77;;
29202;SDS011;16245;51.170;4.884;2022-11-14T00:58:49;26.52;;;16.80;;
29202;SDS011;16245;51.170;4.884;2022-11-14T01:01:15;25.63;;;16.90;;
29202;SDS011;16245;51.170;4.884;2022-11-14T01:03:41;25.27;;;16.33;;
29202;SDS011;16245;51.170;4.884;2022-11-14T01:06:07;22.92;;;15.57;;
29202;SDS011;16245;51.170;4.884;2022-11-14T01:08:35;23.00;;;14.75;;
29202;SDS011;16245;51.170;4.884;2022-11-14T01:11:07;21.63;;;15.73;;
29202;SDS011;16245;51.170;4.884;2022-11-14T01:13:38;21.95;;;15.00;;
29202;SDS011;16245;51.170;4.884;2022-11-14T01:16:04;24.30;;;14.98;;
29202;SDS011;16245;51.170;4.884;2022-11-14T01:18:30;20.20;;;14.07;;
29202;SDS011;16245;51.170;4.884;2022-11-14T01:20:56;21.75;;;14.82;;
29202;SDS011;16245;51.170;4.884;2022-11-14T01:23:22;21.67;;;13.68;;
29202;SDS011;16245;51.170;4.884;2022-11-14T01:25:47;18.17;;;13.10;;
29202;SDS011;16245;51.170;4.884;2022-11-14T01:28:17;19.20;;;13.68;;
29202;SDS011;16245;51.170;4.884;2022-11-14T01:30:43;23.55;;;15.13;;
29202;SDS011;16245;51.170;4.884;2022-11-14T01:33:09;16.85;;;13.40;;
29202;SDS011;16245;51.170;4.884;2022-11-14T01:35:36;19.45;;;13.82;;
29202;SDS011;16245;51.170;4.884;2022-11-14T01:38:03;21.73;;;14.48;;
29202;SDS011;16245;51.170;4.884;2022-11-14T01:40:29;22.15;;;15.02;;
29202;SDS011;16245;51.170;4.884;2022-11-14T01:45:53;15.45;;;12.57;;
29202;SDS011;16245;51.170;4.884;2022-11-14T01:50:59;19.88;;;13.00;;
29202;SDS011;16245;51.170;4.884;2022-11-14T01:53:35;17.48;;;12.73;;
29202;SDS011;16245;51.170;4.884;2022-11-14T01:56:01;20.70;;;13.13;;
29202;SDS011;16245;51.170;4.884;2022-11-14T01:58:30;16.70;;;12.95;;
29202;SDS011;16245;51.170;4.884;2022-11-14T02:00:58;18.10;;;13.85;;
29202;SDS011;16245;51.170;4.884;2022-11-14T02:03:24;18.98;;;12.77;;
29202;SDS011;16245;51.170;4.884;2022-11-14T02:05:49;21.80;;;14.43;;
29202;SDS011;16245;51.170;4.884;2022-11-14T02:08:17;16.67;;;12.20;;
29202;SDS011;16245;51.170;4.884;2022-11-14T02:10:43;14.40;;;11.50;;
29202;SDS011;16245;51.170;4.884;2022-11-14T02:13:09;17.33;;;11.75;;
29202;SDS011;16245;51.170;4.884;2022-11-14T02:15:35;17.20;;;11.80;;
29202;SDS011;16245;51.170;4.884;2022-11-14T02:18:01;13.73;;;10.77;;
29202;SDS011;16245;51.170;4.884;2022-11-14T02:20:27;14.55;;;11.77;;
29202;SDS011;16245;51.170;4.884;2022-11-14T02:22:58;13.43;;;11.43;;
29202;SDS011;16245;51.170;4.884;2022-11-14T02:25:23;15.13;;;10.43;;
29202;SDS011;16245;51.170;4.884;2022-11-14T02:27:49;15.52;;;12.50;;
29202;SDS011;16245;51.170;4.884;2022-11-14T02:30:17;19.88;;;12.40;;
29202;SDS011;16245;51.170;4.884;2022-11-14T02:32:45;17.48;;;12.32;;
29202;SDS011;16245;51.170;4.884;2022-11-14T02:35:11;16.33;;;12.80;;
29202;SDS011;16245;51.170;4.884;2022-11-14T02:37:37;16.20;;;11.45;;
29202;SDS011;16245;51.170;4.884;2022-11-14T02:40:03;16.95;;;12.80;;
29202;SDS011;16245;51.170;4.884;2022-11-14T02:42:29;16.48;;;12.18;;
29202;SDS011;16245;51.170;4.884;2022-11-14T02:44:54;14.32;;;11.23;;
29202;SDS011;16245;51.170;4.884;2022-11-14T02:47:20;18.23;;;12.63;;
29202;SDS011;16245;51.170;4.884;2022-11-14T02:49:48;17.85;;;12.70;;
29202;SDS011;16245;51.170;4.884;2022-11-14T02:52:14;15.43;;;12.05;;
29202;SDS011;16245;51.170;4.884;2022-11-14T02:54:40;17.42;;;11.93;;
29202;SDS011;16245;51.170;4.884;2022-11-14T02:57:06;15.45;;;11.77;;
29202;SDS011;16245;51.170;4.884;2022-11-14T02:59:32;16.05;;;11.70;;
29202;SDS011;16245;51.170;4.884;2022-11-14T03:01:58;13.95;;;11.38;;
29202;SDS011;16245;51.170;4.884;2022-11-14T03:04:23;15.75;;;11.82;;
29202;SDS011;16245;51.170;4.884;2022-11-14T03:06:49;15.13;;;11.82;;
29202;SDS011;16245;51.170;4.884;2022-11-14T03:09:14;15.15;;;11.25;;
29202;SDS011;16245;51.170;4.884;2022-11-14T03:11:42;14.75;;;11.40;;
29202;SDS011;16245;51.170;4.884;2022-11-14T03:14:07;17.20;;;10.90;;
29202;SDS011;16245;51.170;4.884;2022-11-14T03:16:33;12.73;;;11.15;;
29202;SDS011;16245;51.170;4.884;2022-11-14T03:18:59;16.35;;;11.32;;
29202;SDS011;16245;51.170;4.884;2022-11-14T03:21:24;15.80;;;12.23;;
29202;SDS011;16245;51.170;4.884;2022-11-14T03:23:50;16.85;;;11.73;;
29202;SDS011;16245;51.170;4.884;2022-11-14T03:26:16;14.02;;;10.63;;
29202;SDS011;16245;51.170;4.884;2022-11-14T03:28:42;17.75;;;11.85;;
29202;SDS011;16245;51.170;4.884;2022-11-14T03:31:09;14.52;;;10.77;;
29202;SDS011;16245;51.170;4.884;2022-11-14T03:33:36;16.02;;;11.57;;
29202;SDS011;16245;51.170;4.884;2022-11-14T03:36:02;18.55;;;11.88;;
29202;SDS011;16245;51.170;4.884;2022-11-14T03:38:28;17.13;;;11.60;;
29202;SDS011;16245;51.170;4.884;2022-11-14T03:40:56;18.35;;;11.70;;
29202;SDS011;16245;51.170;4.884;2022-11-14T03:43:23;18.17;;;12.65;;
29202;SDS011;16245;51.170;4.884;2022-11-14T03:45:48;20.17;;;12.30;;
29202;SDS011;16245;51.170;4.884;2022-11-14T03:48:14;19.20;;;11.93;;
29202;SDS011;16245;51.170;4.884;2022-11-14T03:50:40;19.13;;;11.95;;
29202;SDS011;16245;51.170;4.884;2022-11-14T03:53:06;16.20;;;11.45;;
29202;SDS011;16245;51.170;4.884;2022-11-14T03:55:32;16.33;;;11.40;;
29202;SDS011;16245;51.170;4.884;2022-11-14T03:57:58;14.60;;;11.10;;
29202;SDS011;16245;51.170;4.884;2022-11-14T04:00:24;15.23;;;10.50;;
29202;SDS011;16245;51.170;4.884;2022-11-14T04:02:52;16.77;;;10.77;;
29202;SDS011;16245;51.170;4.884;2022-11-14T04:05:21;13.25;;;10.80;;
29202;SDS011;16245;51.170;4.884;2022-11-14T04:07:47;14.80;;;10.65;;
29202;SDS011;16245;51.170;4.884;2022-11-14T04:10:13;14.35;;;10.45;;
29202;SDS011;16245;51.170;4.884;2022-11-14T04:12:39;15.10;;;10.63;;
29202;SDS011;16245;51.170;4.884;2022-11-14T04:15:05;16.55;;;10.05;;
29202;SDS011;16245;51.170;4.884;2022-11-14T04:17:31;13.27;;;10.07;;
29202;SDS011;16245;51.170;4.884;2022-11-14T04:19:56;13.05;;;9.93;;
29202;SDS011;16245;51.170;4.884;2022-11-14T04:22:22;13.32;;;9.60;;
29202;SDS011;16245;51.170;4.884;2022-11-14T04:24:48;12.70;;;9.63;;
29202;SDS011;16245;51.170;4.884;2022-11-14T04:27:13;13.82;;;9.98;;
29202;SDS011;16245;51.170;4.884;2022-11-14T04:29:39;13.75;;;9.93;;
29202;SDS011;16245;51.170;4.884;2022-11-14T04:32:04;12.05;;;9.98;;
29202;SDS011;16245;51.170;4.884;2022-11-14T04:34:30;13.90;;;9.70;;
29202;SDS011;16245;51.170;4.884;2022-11-14T04:36:56;12.68;;;10.25;;
29202;SDS011;16245;51.170;4.884;2022-11-14T04:39:21;14.40;;;10.25;;
29202;SDS011;16245;51.170;4.884;2022-11-14T04:41:47;15.93;;;11.35;;
29202;SDS011;16245;51.170;4.884;2022-11-14T04:44:13;16.50;;;10.38;;
29202;SDS011;16245;51.170;4.884;2022-11-14T04:46:38;15.40;;;10.05;;
29202;SDS011;16245;51.170;4.884;2022-11-14T04:49:04;13.90;;;9.73;;
29202;SDS011;16245;51.170;4.884;2022-11-14T04:51:30;13.25;;;9.25;;
29202;SDS011;16245;51.170;4.884;2022-11-14T04:53:56;15.05;;;10.02;;
29202;SDS011;16245;51.170;4.884;2022-11-14T04:56:22;13.70;;;10.43;;
29202;SDS011;16245;51.170;4.884;2022-11-14T04:58:49;13.60;;;10.10;;
29202;SDS011;16245;51.170;4.884;2022-11-14T05:01:15;13.48;;;9.73;;
29202;SDS011;16245;51.170;4.884;2022-11-14T05:03:41;15.60;;;9.45;;
29202;SDS011;16245;51.170;4.884;2022-11-14T05:06:06;13.52;;;9.30;;
29202;SDS011;16245;51.170;4.884;2022-11-14T05:08:32;15.57;;;10.55;;
29202;SDS011;16245;51.170;4.884;2022-11-14T05:10:58;13.35;;;9.00;;
29202;SDS011;16245;51.170;4.884;2022-11-14T05:13:24;12.80;;;9.00;;
29202;SDS011;16245;51.170;4.884;2022-11-14T05:15:49;12.45;;;8.80;;
29202;SDS011;16245;51.170;4.884;2022-11-14T05:18:15;13.32;;;9.98;;
29202;SDS011;16245;51.170;4.884;2022-11-14T05:20:41;12.45;;;9.35;;
29202;SDS011;16245;51.170;4.884;2022-11-14T05:23:06;13.15;;;9.07;;
29202;SDS011;16245;51.170;4.884;2022-11-14T05:25:37;13.80;;;10.27;;
29202;SDS011;16245;51.170;4.884;2022-11-14T05:28:03;14.95;;;10.07;;
29202;SDS011;16245;51.170;4.884;2022-11-14T05:30:28;16.83;;;10.20;;
29202;SDS011;16245;51.170;4.884;2022-11-14T05:32:55;15.07;;;10.13;;
29202;SDS011;16245;51.170;4.884;2022-11-14T05:35:20;13.15;;;9.98;;
29202;SDS011;16245;51.170;4.884;2022-11-14T05:37:46;14.52;;;10.63;;
29202;SDS011;16245;51.170;4.884;2022-11-14T05:40:11;12.63;;;9.88;;
29202;SDS011;16245;51.170;4.884;2022-11-14T05:42:37;13.80;;;9.68;;
29202;SDS011;16245;51.170;4.884;2022-11-14T05:45:03;12.90;;;9.93;;
29202;SDS011;16245;51.170;4.884;2022-11-14T05:47:29;13.18;;;10.02;;
29202;SDS011;16245;51.170;4.884;2022-11-14T05:49:55;13.18;;;10.13;;
29202;SDS011;16245;51.170;4.884;2022-11-14T05:52:20;13.90;;;9.57;;
29202;SDS011;16245;51.170;4.884;2022-11-14T05:54:46;11.88;;;9.02;;
29202;SDS011;16245;51.170;4.884;2022-11-14T05:57:11;17.65;;;10.15;;
29202;SDS011;16245;51.170;4.884;2022-11-14T05:59:37;13.25;;;9.55;;
29202;SDS011;16245;51.170;4.884;2022-11-14T06:02:02;14.98;;;9.38;;
29202;SDS011;16245;51.170;4.884;2022-11-14T06:04:29;12.52;;;9.63;;
29202;SDS011;16245;51.170;4.884;2022-11-14T06:06:54;13.73;;;9.35;;
29202;SDS011;16245;51.170;4.884;2022-11-14T06:09:20;15.18;;;10.23;;
29202;SDS011;16245;51.170;4.884;2022-11-14T06:11:46;12.35;;;9.35;;
29202;SDS011;16245;51.170;4.884;2022-11-14T06:14:11;11.90;;;9.90;;
29202;SDS011;16245;51.170;4.884;2022-11-14T06:16:37;12.57;;;9.25;;
29202;SDS011;16245;51.170;4.884;2022-11-14T06:19:02;10.48;;;8.15;;
29202;SDS011;16245;51.170;4.884;2022-11-14T06:21:29;12.55;;;8.73;;
29202;SDS011;16245;51.170;4.884;2022-11-14T06:23:55;13.10;;;9.27;;
29202;SDS011;16245;51.170;4.884;2022-11-14T06:26:27;18.50;;;9.80;;
29202;SDS011;16245;51.170;4.884;2022-11-14T06:28:54;14.50;;;9.38;;
29202;SDS011;16245;51.170;4.884;2022-11-14T06:31:20;14.25;;;9.70;;
29202;SDS011;16245;51.170;4.884;2022-11-14T06:33:47;14.73;;;9.80;;
29202;SDS011;16245;51.170;4.884;2022-11-14T06:36:13;13.73;;;8.93;;
29202;SDS011;16245;51.170;4.884;2022-11-14T06:38:40;15.35;;;10.15;;
29202;SDS011;16245;51.170;4.884;2022-11-14T06:41:10;13.10;;;9.02;;
29202;SDS011;16245;51.170;4.884;2022-11-14T06:43:38;14.35;;;9.57;;
29202;SDS011;16245;51.170;4.884;2022-11-14T06:46:06;14.43;;;10.73;;
29202;SDS011;16245;51.170;4.884;2022-11-14T06:48:33;14.38;;;9.68;;
29202;SDS011;16245;51.170;4.884;2022-11-14T06:50:59;16.58;;;10.95;;
29202;SDS011;16245;51.170;4.884;2022-11-14T06:53:26;14.57;;;10.60;;
29202;SDS011;16245;51.170;4.884;2022-11-14T06:55:57;15.15;;;11.20;;
29202;SDS011;16245;51.170;4.884;2022-11-14T06:58:25;16.02;;;10.45;;
29202;SDS011;16245;51.170;4.884;2022-11-14T07:00:56;16.20;;;11.55;;
29202;SDS011;16245;51.170;4.884;2022-11-14T07:03:27;18.77;;;10.57;;
29202;SDS011;16245;51.170;4.884;2022-11-14T07:05:56;15.23;;;10.20;;
29202;SDS011;16245;51.170;4.884;2022-11-14T07:08:22;16.80;;;10.10;;
29202;SDS011;16245;51.170;4.884;2022-11-14T07:10:48;13.13;;;9.68;;
29202;SDS011;16245;51.170;4.884;2022-11-14T07:13:13;12.63;;;9.90;;
29202;SDS011;16245;51.170;4.884;2022-11-14T07:15:39;13.18;;;9.77;;
29202;SDS011;16245;51.170;4.884;2022-11-14T07:18:13;11.50;;;8.50;;
29202;SDS011;16245;51.170;4.884;2022-11-14T07:20:38;11.35;;;9.30;;
29202;SDS011;16245;51.170;4.884;2022-11-14T07:23:04;14.30;;;10.13;;
29202;SDS011;16245;51.170;4.884;2022-11-14T07:25:29;14.38;;;9.18;;
29202;SDS011;16245;51.170;4.884;2022-11-14T07:27:56;16.02;;;9.73;;
29202;SDS011;16245;51.170;4.884;2022-11-14T07:30:22;13.32;;;9.20;;
29202;SDS011;16245;51.170;4.884;2022-11-14T07:32:53;14.45;;;9.95;;
29202;SDS011;16245;51.170;4.884;2022-11-14T07:35:19;14.95;;;9.95;;
29202;SDS011;16245;51.170;4.884;2022-11-14T07:37:45;14.75;;;8.77;;
29202;SDS011;16245;51.170;4.884;2022-11-14T07:40:11;11.88;;;9.48;;
29202;SDS011;16245;51.170;4.884;2022-11-14T07:42:36;13.07;;;9.40;;
29202;SDS011;16245;51.170;4.884;2022-11-14T07:45:02;12.90;;;9.50;;
29202;SDS011;16245;51.170;4.884;2022-11-14T07:47:28;11.80;;;9.57;;
29202;SDS011;16245;51.170;4.884;2022-11-14T07:49:54;16.30;;;9.80;;
29202;SDS011;16245;51.170;4.884;2022-11-14T07:52:19;12.73;;;9.38;;
29202;SDS011;16245;51.170;4.884;2022-11-14T07:54:45;16.40;;;11.48;;
29202;SDS011;16245;51.170;4.884;2022-11-14T07:57:11;16.00;;;11.25;;
29202;SDS011;16245;51.170;4.884;2022-11-14T07:59:37;16.15;;;11.70;;
29202;SDS011;16245;51.170;4.884;2022-11-14T08:02:02;16.77;;;11.77;;
29202;SDS011;16245;51.170;4.884;2022-11-14T08:04:28;15.65;;;11.20;;
29202;SDS011;16245;51.170;4.884;2022-11-14T08:06:54;19.05;;;12.20;;
29202;SDS011;16245;51.170;4.884;2022-11-14T08:09:19;17.77;;;11.05;;
29202;SDS011;16245;51.170;4.884;2022-11-14T08:11:47;17.88;;;11.85;;
29202;SDS011;16245;51.170;4.884;2022-11-14T08:14:13;17.75;;;11.68;;
29202;SDS011;16245;51.170;4.884;2022-11-14T08:16:39;19.95;;;13.50;;
29202;SDS011;16245;51.170;4.884;2022-11-14T08:19:05;22.15;;;13.75;;
29202;SDS011;16245;51.170;4.884;2022-11-14T08:21:30;18.98;;;12.40;;
29202;SDS011;16245;51.170;4.884;2022-11-14T08:23:56;21.33;;;14.82;;
29202;SDS011;16245;51.170;4.884;2022-11-14T08:26:22;23.15;;;16.83;;
29202;SDS011;16245;51.170;4.884;2022-11-14T08:28:50;27.88;;;16.35;;
29202;SDS011;16245;51.170;4.884;2022-11-14T08:31:18;21.88;;;17.38;;
29202;SDS011;16245;51.170;4.884;2022-11-14T08:33:44;21.95;;;16.33;;
29202;SDS011;16245;51.170;4.884;2022-11-14T08:36:10;23.98;;;17.52;;
29202;SDS011;16245;51.170;4.884;2022-11-14T08:38:36;21.92;;;17.08;;
29202;SDS011;16245;51.170;4.884;2022-11-14T08:41:02;26.75;;;16.52;;
29202;SDS011;16245;51.170;4.884;2022-11-14T08:43:28;26.88;;;18.08;;
29202;SDS011;16245;51.170;4.884;2022-11-14T08:45:58;22.98;;;16.67;;
29202;SDS011;16245;51.170;4.884;2022-11-14T08:48:25;31.30;;;18.73;;
29202;SDS011;16245;51.170;4.884;2022-11-14T08:50:51;29.95;;;18.52;;
29202;SDS011;16245;51.170;4.884;2022-11-14T08:53:17;25.08;;;17.10;;
29202;SDS011;16245;51.170;4.884;2022-11-14T08:55:43;25.80;;;18.33;;
29202;SDS011;16245;51.170;4.884;2022-11-14T08:58:09;22.33;;;15.95;;
29202;SDS011;16245;51.170;4.884;2022-11-14T09:00:35;22.80;;;14.73;;
29202;SDS011;16245;51.170;4.884;2022-11-14T09:03:05;17.05;;;13.70;;
29202;SDS011;16245;51.170;4.884;2022-11-14T09:05:32;16.55;;;13.55;;
29202;SDS011;16245;51.170;4.884;2022-11-14T09:07:59;14.50;;;11.43;;
29202;SDS011;16245;51.170;4.884;2022-11-14T09:10:24;17.20;;;12.68;;
29202;SDS011;16245;51.170;4.884;2022-11-14T09:12:56;12.57;;;10.18;;
29202;SDS011;16245;51.170;4.884;2022-11-14T09:15:23;15.57;;;10.38;;
29202;SDS011;16245;51.170;4.884;2022-11-14T09:17:53;14.65;;;9.15;;
29202;SDS011;16245;51.170;4.884;2022-11-14T09:20:21;10.27;;;9.02;;
29202;SDS011;16245;51.170;4.884;2022-11-14T09:22:47;11.30;;;9.00;;
29202;SDS011;16245;51.170;4.884;2022-11-14T09:25:16;9.85;;;8.20;;
29202;SDS011;16245;51.170;4.884;2022-11-14T09:27:42;12.27;;;8.77;;
29202;SDS011;16245;51.170;4.884;2022-11-14T09:30:08;10.35;;;9.35;;
29202;SDS011;16245;51.170;4.884;2022-11-14T09:32:34;10.93;;;9.05;;
29202;SDS011;16245;51.170;4.884;2022-11-14T09:35:00;11.07;;;9.25;;
29202;SDS011;16245;51.170;4.884;2022-11-14T09:37:25;12.32;;;9.65;;
29202;SDS011;16245;51.170;4.884;2022-11-14T09:39:51;10.30;;;8.95;;
29202;SDS011;16245;51.170;4.884;2022-11-14T09:42:33;10.00;;;8.68;;
29202;SDS011;16245;51.170;4.884;2022-11-14T09:45:17;13.35;;;8.35;;
29202;SDS011;16245;51.170;4.884;2022-11-14T09:47:50;12.05;;;8.18;;
29202;SDS011;16245;51.170;4.884;2022-11-14T09:50:26;11.75;;;8.50;;
29202;SDS011;16245;51.170;4.884;2022-11-14T09:52:57;11.10;;;8.25;;
29202;SDS011;16245;51.170;4.884;2022-11-14T09:55:28;11.82;;;9.05;;
29202;SDS011;16245;51.170;4.884;2022-11-14T09:57:55;11.95;;;9.10;;
29202;SDS011;16245;51.170;4.884;2022-11-14T10:00:23;12.55;;;9.73;;
29202;SDS011;16245;51.170;4.884;2022-11-14T10:11:04;12.27;;;8.93;;
29202;SDS011;16245;51.170;4.884;2022-11-14T10:18:52;11.65;;;10.35;;
29202;SDS011;16245;51.170;4.884;2022-11-14T10:21:48;11.55;;;10.00;;
29202;SDS011;16245;51.170;4.884;2022-11-14T10:27:01;12.68;;;10.10;;
29202;SDS011;16245;51.170;4.884;2022-11-14T10:29:35;12.52;;;10.18;;
29202;SDS011;16245;51.170;4.884;2022-11-14T10:43:32;14.38;;;10.68;;
29202;SDS011;16245;51.170;4.884;2022-11-14T10:48:43;12.20;;;9.45;;
29202;SDS011;16245;51.170;4.884;2022-11-14T10:53:57;12.00;;;10.55;;
29202;SDS011;16245;51.170;4.884;2022-11-14T10:56:34;13.35;;;10.25;;
29202;SDS011;16245;51.170;4.884;2022-11-14T10:59:10;17.27;;;11.02;;
29202;SDS011;16245;51.170;4.884;2022-11-14T11:01:37;14.32;;;10.75;;
29202;SDS011;16245;51.170;4.884;2022-11-14T11:06:36;12.63;;;10.18;;
29202;SDS011;16245;51.170;4.884;2022-11-14T11:09:12;14.35;;;11.07;;
29202;SDS011;16245;51.170;4.884;2022-11-14T11:11:59;14.80;;;11.45;;
29202;SDS011;16245;51.170;4.884;2022-11-14T11:14:26;16.13;;;10.98;;
29202;SDS011;16245;51.170;4.884;2022-11-14T11:19:38;14.25;;;10.55;;
29202;SDS011;16245;51.170;4.884;2022-11-14T11:22:08;14.25;;;10.23;;
29202;SDS011;16245;51.170;4.884;2022-11-14T11:24:47;12.35;;;10.70;;
29202;SDS011;16245;51.170;4.884;2022-11-14T11:27:26;15.43;;;10.48;;
29202;SDS011;16245;51.170;4.884;2022-11-14T11:30:04;11.60;;;9.75;;
29202;SDS011;16245;51.170;4.884;2022-11-14T11:32:42;19.77;;;11.00;;
29202;SDS011;16245;51.170;4.884;2022-11-14T11:35:10;12.43;;;10.77;;
29202;SDS011;16245;51.170;4.884;2022-11-14T11:40:19;14.75;;;11.20;;
29202;SDS011;16245;51.170;4.884;2022-11-14T11:42:55;13.13;;;11.00;;
29202;SDS011;16245;51.170;4.884;2022-11-14T11:45:28;12.95;;;10.52;;
29202;SDS011;16245;51.170;4.884;2022-11-14T11:47:57;12.20;;;10.88;;
29202;SDS011;16245;51.170;4.884;2022-11-14T11:50:29;14.82;;;10.15;;
29202;SDS011;16245;51.170;4.884;2022-11-14T11:55:42;14.02;;;10.57;;
29202;SDS011;16245;51.170;4.884;2022-11-14T12:00:52;10.38;;;9.25;;
29202;SDS011;16245;51.170;4.884;2022-11-14T12:03:21;12.55;;;9.27;;
29202;SDS011;16245;51.170;4.884;2022-11-14T12:09:00;14.93;;;10.68;;
29202;SDS011;16245;51.170;4.884;2022-11-14T12:11:35;11.43;;;9.95;;
29202;SDS011;16245;51.170;4.884;2022-11-14T12:17:03;11.73;;;9.73;;
29202;SDS011;16245;51.170;4.884;2022-11-14T12:31:09;13.35;;;11.55;;
29202;SDS011;16245;51.170;4.884;2022-11-14T12:33:39;16.05;;;12.10;;
29202;SDS011;16245;51.170;4.884;2022-11-14T12:36:10;17.35;;;12.27;;
29202;SDS011;16245;51.170;4.884;2022-11-14T12:38:41;16.58;;;12.27;;
29202;SDS011;16245;51.170;4.884;2022-11-14T12:58:03;21.50;;;14.13;;
29202;SDS011;16245;51.170;4.884;2022-11-14T13:03:23;16.52;;;12.70;;
29202;SDS011;16245;51.170;4.884;2022-11-14T13:06:22;19.17;;;14.00;;
29202;SDS011;16245;51.170;4.884;2022-11-14T13:09:02;16.80;;;13.35;;
29202;SDS011;16245;51.170;4.884;2022-11-14T13:11:45;17.85;;;13.27;;
29202;SDS011;16245;51.170;4.884;2022-11-14T13:14:31;18.80;;;14.50;;
29202;SDS011;16245;51.170;4.884;2022-11-14T13:17:35;16.98;;;13.15;;
29202;SDS011;16245;51.170;4.884;2022-11-14T13:26:34;20.42;;;14.23;;
29202;SDS011;16245;51.170;4.884;2022-11-14T13:33:45;17.98;;;13.95;;
29202;SDS011;16245;51.170;4.884;2022-11-14T13:50:39;17.25;;;13.73;;
29202;SDS011;16245;51.170;4.884;2022-11-14T13:53:14;19.80;;;14.00;;
29202;SDS011;16245;51.170;4.884;2022-11-14T13:56:27;20.05;;;14.57;;
29202;SDS011;16245;51.170;4.884;2022-11-14T14:02:11;17.75;;;13.55;;
29202;SDS011;16245;51.170;4.884;2022-11-14T14:22:25;23.67;;;16.70;;
29202;SDS011;16245;51.170;4.884;2022-11-14T14:25:02;19.88;;;16.15;;
29202;SDS011;16245;51.170;4.884;2022-11-14T14:27:43;22.00;;;16.05;;
29202;SDS011;16245;51.170;4.884;2022-11-14T14:30:29;22.77;;;16.10;;
29202;SDS011;16245;51.170;4.884;2022-11-14T14:35:34;19.60;;;15.35;;
29202;SDS011;16245;51.170;4.884;2022-11-14T14:38:01;22.13;;;15.98;;
29202;SDS011;16245;51.170;4.884;2022-11-14T14:40:34;24.70;;;16.40;;
29202;SDS011;16245;51.170;4.884;2022-11-14T14:43:01;24.05;;;16.65;;
29202;SDS011;16245;51.170;4.884;2022-11-14T14:45:30;22.58;;;16.67;;
29202;SDS011;16245;51.170;4.884;2022-11-14T14:48:12;22.73;;;17.25;;
29202;SDS011;16245;51.170;4.884;2022-11-14T14:50:56;22.17;;;16.75;;
29202;SDS011;16245;51.170;4.884;2022-11-14T14:58:26;25.10;;;16.25;;
29202;SDS011;16245;51.170;4.884;2022-11-14T15:04:01;25.48;;;17.60;;
29202;SDS011;16245;51.170;4.884;2022-11-14T15:06:36;22.70;;;16.42;;
29202;SDS011;16245;51.170;4.884;2022-11-14T15:11:31;25.27;;;17.70;;
29202;SDS011;16245;51.170;4.884;2022-11-14T15:13:58;22.92;;;16.40;;
29202;SDS011;16245;51.170;4.884;2022-11-14T15:16:25;22.92;;;15.95;;
29202;SDS011;16245;51.170;4.884;2022-11-14T15:18:53;24.77;;;17.67;;
29202;SDS011;16245;51.170;4.884;2022-11-14T15:26:27;25.05;;;18.23;;
29202;SDS011;16245;51.170;4.884;2022-11-14T15:29:15;24.02;;;18.33;;
29202;SDS011;16245;51.170;4.884;2022-11-14T15:32:17;23.83;;;17.38;;
29202;SDS011;16245;51.170;4.884;2022-11-14T15:37:58;28.13;;;18.08;;
29202;SDS011;16245;51.170;4.884;2022-11-14T15:40:30;25.10;;;17.10;;
29202;SDS011;16245;51.170;4.884;2022-11-14T15:42:57;27.60;;;18.13;;
29202;SDS011;16245;51.170;4.884;2022-11-14T15:45:27;23.30;;;16.70;;
29202;SDS011;16245;51.170;4.884;2022-11-14T15:48:05;23.80;;;17.63;;
29202;SDS011;16245;51.170;4.884;2022-11-14T15:50:41;29.20;;;18.25;;
29202;SDS011;16245;51.170;4.884;2022-11-14T15:55:42;23.38;;;16.98;;
29202;SDS011;16245;51.170;4.884;2022-11-14T15:58:08;21.60;;;16.52;;
29202;SDS011;16245;51.170;4.884;2022-11-14T16:00:35;23.13;;;17.10;;
29202;SDS011;16245;51.170;4.884;2022-11-14T16:03:09;21.83;;;15.80;;
29202;SDS011;16245;51.170;4.884;2022-11-14T16:05:36;23.63;;;16.23;;
29202;SDS011;16245;51.170;4.884;2022-11-14T16:08:01;23.50;;;16.42;;
29202;SDS011;16245;51.170;4.884;2022-11-14T16:10:27;24.50;;;16.77;;
29202;SDS011;16245;51.170;4.884;2022-11-14T16:12:54;27.23;;;17.83;;
29202;SDS011;16245;51.170;4.884;2022-11-14T16:15:20;22.33;;;16.40;;
29202;SDS011;16245;51.170;4.884;2022-11-14T16:17:46;26.58;;;19.15;;
29202;SDS011;16245;51.170;4.884;2022-11-14T16:20:14;28.30;;;19.98;;
29202;SDS011;16245;51.170;4.884;2022-11-14T16:22:42;55.72;;;35.40;;
29202;SDS011;16245;51.170;4.884;2022-11-14T16:25:15;53.13;;;33.70;;
29202;SDS011;16245;51.170;4.884;2022-11-14T16:27:50;31.33;;;21.95;;
29202;SDS011;16245;51.170;4.884;2022-11-14T16:30:16;37.85;;;25.52;;
29202;SDS011;16245;51.170;4.884;2022-11-14T16:32:44;24.50;;;18.02;;
29202;SDS011;16245;51.170;4.884;2022-11-14T16:35:12;23.60;;;17.30;;
29202;SDS011;16245;51.170;4.884;2022-11-14T16:37:39;22.38;;;17.33;;
29202;SDS011;16245;51.170;4.884;2022-11-14T16:40:05;25.88;;;17.92;;
29202;SDS011;16245;51.170;4.884;2022-11-14T16:42:34;24.98;;;18.42;;
29202;SDS011;16245;51.170;4.884;2022-11-14T16:45:00;27.08;;;19.15;;
29202;SDS011;16245;51.170;4.884;2022-11-14T16:47:26;24.05;;;17.83;;
29202;SDS011;16245;51.170;4.884;2022-11-14T16:49:52;23.65;;;17.63;;
29202;SDS011;16245;51.170;4.884;2022-11-14T16:52:18;23.52;;;16.98;;
29202;SDS011;16245;51.170;4.884;2022-11-14T16:54:44;25.58;;;19.08;;
29202;SDS011;16245;51.170;4.884;2022-11-14T16:57:10;26.30;;;19.25;;
29202;SDS011;16245;51.170;4.884;2022-11-14T16:59:36;26.30;;;19.13;;
29202;SDS011;16245;51.170;4.884;2022-11-14T17:02:02;25.30;;;18.40;;
29202;SDS011;16245;51.170;4.884;2022-11-14T17:04:28;23.42;;;17.40;;
29202;SDS011;16245;51.170;4.884;2022-11-14T17:06:53;24.63;;;17.75;;
29202;SDS011;16245;51.170;4.884;2022-11-14T17:09:19;22.67;;;17.70;;